createdAt,value
2023-04-18T00:00:10.176Z,22.50
2023-04-18T00:01:10.210Z,22.52
2023-04-18T00:02:10.319Z,22.52
2023-04-18T00:03:10.490Z,22.53
2023-04-18T00:04:10.726Z,22.53
2023-04-18T00:05:10.528Z,22.54
2023-04-18T00:06:10.487Z,22.54
2023-04-18T00:07:10.531Z,22.55
2023-04-18T00:08:10.589Z,22.55
2023-04-18T00:09:10.674Z,22.56
2023-04-18T00:10:10.677Z,22.56
2023-04-18T00:11:10.735Z,22.56
2023-04-18T00:12:10.780Z,22.57
2023-04-18T00:13:10.834Z,22.58
2023-04-18T00:14:10.985Z,22.58
2023-04-18T00:15:10.974Z,22.57
2023-04-18T00:16:10.965Z,22.58
2023-04-18T00:17:11.163Z,22.58
2023-04-18T00:18:11.086Z,22.59
2023-04-18T00:19:11.089Z,22.60
2023-04-18T00:20:11.222Z,22.59
2023-04-18T00:21:11.181Z,22.60
2023-04-18T00:22:11.213Z,22.60
2023-04-18T00:23:13.328Z,22.60
2023-04-18T00:24:11.399Z,22.61
2023-04-18T00:25:11.401Z,22.61
2023-04-18T00:26:11.410Z,22.61
2023-04-18T00:27:11.438Z,22.61
2023-04-18T00:28:11.496Z,22.62
2023-04-18T00:29:11.540Z,22.62
2023-04-18T00:30:11.560Z,22.62
2023-04-18T00:31:11.616Z,22.63
2023-04-18T00:32:11.646Z,22.63
2023-04-18T00:33:11.686Z,22.63
2023-04-18T00:34:11.989Z,22.63
2023-04-18T00:35:11.777Z,22.64
2023-04-18T00:36:11.887Z,22.64
2023-04-18T00:37:11.897Z,22.65
2023-04-18T00:38:11.956Z,22.64
2023-04-18T00:39:11.971Z,22.65
2023-04-18T00:40:12.088Z,22.65
2023-04-18T00:41:12.044Z,22.64
2023-04-18T00:42:12.083Z,22.65
2023-04-18T00:43:12.154Z,22.65
2023-04-18T00:44:12.299Z,22.66
2023-04-18T00:45:12.246Z,22.66
2023-04-18T00:46:12.270Z,22.66
2023-04-18T00:47:12.298Z,22.66
2023-04-18T00:48:12.348Z,22.67
2023-04-18T00:49:12.398Z,22.66
2023-04-18T00:50:12.499Z,22.67
2023-04-18T00:51:12.469Z,22.67
2023-04-18T00:52:12.539Z,22.67
2023-04-18T00:53:12.604Z,22.68
2023-04-18T00:54:12.785Z,22.68
2023-04-18T00:55:12.667Z,22.68
2023-04-18T00:56:12.655Z,22.67
2023-04-18T00:57:12.725Z,22.67
2023-04-18T00:58:12.759Z,22.68
2023-04-18T00:59:12.832Z,22.68
2023-04-18T01:00:12.873Z,22.69
2023-04-18T01:01:12.918Z,22.69
2023-04-18T01:02:12.982Z,22.69
2023-04-18T01:03:13.147Z,22.69
2023-04-18T01:04:13.301Z,22.69
2023-04-18T01:05:13.072Z,22.69
2023-04-18T01:06:13.096Z,22.70
2023-04-18T01:07:13.180Z,22.70
2023-04-18T01:08:13.168Z,22.70
2023-04-18T01:09:13.213Z,22.70
2023-04-18T01:10:13.248Z,22.70
2023-04-18T01:11:13.241Z,22.71
2023-04-18T01:12:13.265Z,22.72
2023-04-18T01:13:13.338Z,22.72
2023-04-18T01:14:13.468Z,22.72
2023-04-18T01:15:13.387Z,22.72
2023-04-18T01:16:13.423Z,22.72
2023-04-18T01:17:13.568Z,22.72
2023-04-18T01:18:13.493Z,22.72
2023-04-18T01:19:13.497Z,22.72
2023-04-18T01:20:13.615Z,22.72
2023-04-18T01:21:13.587Z,22.72
2023-04-18T01:22:13.657Z,22.73
2023-04-18T01:23:13.665Z,22.72
2023-04-18T01:24:13.832Z,22.73
2023-04-18T01:25:13.778Z,22.73
2023-04-18T01:26:13.987Z,22.73
2023-04-18T01:27:13.853Z,22.74
2023-04-18T01:28:13.816Z,22.73
2023-04-18T01:29:13.894Z,22.73
2023-04-18T01:30:13.946Z,22.74
2023-04-18T01:31:13.964Z,22.74
2023-04-18T01:32:13.989Z,22.75
2023-04-18T01:33:14.011Z,22.74
2023-04-18T01:34:14.204Z,22.75
2023-04-18T01:35:14.066Z,22.75
2023-04-18T01:36:14.118Z,22.75
2023-04-18T01:37:14.132Z,22.75
2023-04-18T01:38:14.173Z,22.75
2023-04-18T01:39:14.227Z,22.75
2023-04-18T01:40:14.239Z,22.76
2023-04-18T01:41:14.247Z,22.76
2023-04-18T01:42:14.277Z,22.76
2023-04-18T01:43:14.355Z,22.77
2023-04-18T01:44:14.520Z,22.76
2023-04-18T01:45:14.384Z,22.77
2023-04-18T01:46:14.433Z,22.78
2023-04-18T01:47:14.426Z,22.77
2023-04-18T01:48:14.497Z,22.78
2023-04-18T01:49:14.546Z,22.78
2023-04-18T01:50:14.609Z,22.77
2023-04-18T01:51:14.583Z,22.77
2023-04-18T01:52:14.620Z,22.78
2023-04-18T01:53:14.692Z,22.78
2023-04-18T01:54:14.809Z,22.79
2023-04-18T01:55:14.710Z,22.79
2023-04-18T01:56:14.774Z,22.79
2023-04-18T01:57:14.790Z,22.79
2023-04-18T01:58:14.807Z,22.78
2023-04-18T01:59:14.846Z,22.79
2023-04-18T02:00:14.896Z,22.80
2023-04-18T02:01:14.981Z,22.81
2023-04-18T02:02:14.998Z,22.80
2023-04-18T02:03:15.084Z,22.81
2023-04-18T02:04:15.294Z,22.81
2023-04-18T02:05:15.049Z,22.81
2023-04-18T02:06:15.075Z,22.81
2023-04-18T02:07:15.110Z,22.81
2023-04-18T02:08:15.986Z,22.81
2023-04-18T02:09:15.159Z,22.81
2023-04-18T02:10:15.204Z,22.81
2023-04-18T02:11:15.242Z,22.81
2023-04-18T02:12:15.239Z,22.81
2023-04-18T02:13:15.264Z,22.82
2023-04-18T02:14:15.525Z,22.82
2023-04-18T02:15:15.341Z,22.82
2023-04-18T02:16:15.435Z,22.82
2023-04-18T02:17:15.396Z,22.82
2023-04-18T02:18:15.387Z,22.82
2023-04-18T02:19:15.452Z,22.82
2023-04-18T02:20:15.500Z,22.82
2023-04-18T02:21:15.510Z,22.83
2023-04-18T02:22:15.529Z,22.83
2023-04-18T02:23:15.562Z,22.83
2023-04-18T02:24:15.652Z,22.83
2023-04-18T02:25:15.634Z,22.83
2023-04-18T02:26:15.662Z,22.82
2023-04-18T02:27:15.642Z,22.82
2023-04-18T02:28:15.699Z,22.82
2023-04-18T02:29:15.842Z,22.82
2023-04-18T02:30:15.786Z,22.82
2023-04-18T02:31:15.833Z,22.82
2023-04-18T02:32:15.820Z,22.82
2023-04-18T02:33:15.855Z,22.82
2023-04-18T02:34:16.101Z,22.82
2023-04-18T02:35:15.910Z,22.83
2023-04-18T02:36:15.947Z,22.82
2023-04-18T02:37:15.968Z,22.82
2023-04-18T02:38:15.991Z,22.83
2023-04-18T02:39:16.030Z,22.82
2023-04-18T02:40:16.074Z,22.83
2023-04-18T02:41:16.094Z,22.82
2023-04-18T02:42:16.110Z,22.83
2023-04-18T02:43:16.128Z,22.83
2023-04-18T02:44:16.212Z,22.83
2023-04-18T02:45:16.230Z,22.83
2023-04-18T02:46:16.316Z,22.83
2023-04-18T02:47:16.249Z,22.83
2023-04-18T02:48:16.323Z,22.83
2023-04-18T02:49:16.349Z,22.83
2023-04-18T02:50:16.358Z,22.84
2023-04-18T02:51:16.374Z,22.83
2023-04-18T02:52:16.446Z,22.82
2023-04-18T02:53:16.472Z,22.83
2023-04-18T02:54:16.572Z,22.82
2023-04-18T02:55:16.528Z,22.82
2023-04-18T02:56:16.585Z,22.83
2023-04-18T02:57:16.560Z,22.83
2023-04-18T02:58:16.608Z,22.82
2023-04-18T02:59:16.617Z,22.83
2023-04-18T03:00:16.643Z,22.82
2023-04-18T03:01:17.100Z,22.82
2023-04-18T03:02:16.784Z,22.82
2023-04-18T03:03:16.797Z,22.82
2023-04-18T03:04:16.869Z,22.82
2023-04-18T03:05:16.842Z,22.83
2023-04-18T03:06:16.856Z,22.83
2023-04-18T03:07:16.905Z,22.83
2023-04-18T03:08:16.917Z,22.83
2023-04-18T03:09:16.921Z,22.83
2023-04-18T03:10:16.936Z,22.83
2023-04-18T03:11:16.964Z,22.84
2023-04-18T03:12:16.971Z,22.84
2023-04-18T03:13:17.054Z,22.84
2023-04-18T03:14:17.060Z,22.85
2023-04-18T03:15:17.095Z,22.84
2023-04-18T03:16:17.197Z,22.85
2023-04-18T03:17:17.117Z,22.84
2023-04-18T03:18:17.237Z,22.84
2023-04-18T03:19:17.261Z,22.85
2023-04-18T03:20:17.247Z,22.85
2023-04-18T03:21:17.241Z,22.85
2023-04-18T03:22:17.260Z,22.86
2023-04-18T03:23:17.358Z,22.86
2023-04-18T03:24:17.655Z,22.86
2023-04-18T03:25:17.389Z,22.87
2023-04-18T03:26:17.418Z,22.87
2023-04-18T03:27:17.405Z,22.87
2023-04-18T03:28:17.451Z,22.87
2023-04-18T03:29:17.441Z,22.87
2023-04-18T03:30:17.517Z,22.88
2023-04-18T03:31:17.622Z,22.88
2023-04-18T03:32:17.669Z,22.88
2023-04-18T03:33:17.572Z,22.89
2023-04-18T03:34:17.585Z,22.89
2023-04-18T03:35:17.627Z,22.89
2023-04-18T03:36:17.623Z,22.89
2023-04-18T03:37:17.687Z,22.90
2023-04-18T03:38:17.716Z,22.89
2023-04-18T03:39:17.717Z,22.89
2023-04-18T03:40:17.756Z,22.89
2023-04-18T03:41:17.777Z,22.90
2023-04-18T03:42:17.842Z,22.89
2023-04-18T03:43:17.856Z,22.90
2023-04-18T03:44:17.831Z,22.90
2023-04-18T03:45:17.894Z,22.89
2023-04-18T03:46:17.952Z,22.90
2023-04-18T03:47:17.903Z,22.90
2023-04-18T03:48:17.955Z,22.89
2023-04-18T03:49:17.967Z,22.90
2023-04-18T03:50:17.985Z,22.90
2023-04-18T03:51:18.003Z,22.90
2023-04-18T03:52:18.037Z,22.90
2023-04-18T03:53:18.093Z,22.90
2023-04-18T03:54:18.113Z,22.90
2023-04-18T03:55:18.128Z,22.90
2023-04-18T03:56:18.148Z,22.90
2023-04-18T03:57:18.186Z,22.90
2023-04-18T03:58:18.212Z,22.91
2023-04-18T03:59:18.254Z,22.90
2023-04-18T04:00:18.266Z,22.91
2023-04-18T04:01:18.297Z,22.90
2023-04-18T04:02:18.402Z,22.90
2023-04-18T04:03:18.503Z,22.89
2023-04-18T04:04:18.608Z,22.90
2023-04-18T04:05:18.435Z,22.90
2023-04-18T04:06:18.464Z,22.90
2023-04-18T04:07:18.461Z,22.90
2023-04-18T04:08:18.485Z,22.90
2023-04-18T04:09:18.552Z,22.90
2023-04-18T04:10:18.565Z,22.90
2023-04-18T04:11:18.584Z,22.91
2023-04-18T04:12:18.658Z,22.91
2023-04-18T04:13:18.680Z,22.91
2023-04-18T04:14:18.654Z,22.91
2023-04-18T04:15:18.667Z,22.91
2023-04-18T04:16:18.775Z,22.92
2023-04-18T04:17:18.753Z,22.92
2023-04-18T04:18:18.772Z,22.91
2023-04-18T04:19:18.780Z,22.91
2023-04-18T04:20:19.118Z,22.91
2023-04-18T04:21:20.069Z,22.91
2023-04-18T04:22:18.841Z,22.91
2023-04-18T04:23:18.903Z,22.92
2023-04-18T04:24:18.947Z,22.92
2023-04-18T04:25:18.937Z,22.92
2023-04-18T04:26:18.958Z,22.92
2023-04-18T04:27:19.123Z,22.93
2023-04-18T04:28:19.005Z,22.92
2023-04-18T04:29:19.040Z,22.92
2023-04-18T04:30:19.103Z,22.92
2023-04-18T04:31:19.143Z,22.93
2023-04-18T04:32:19.175Z,22.93
2023-04-18T04:33:19.153Z,22.94
2023-04-18T04:34:19.164Z,22.93
2023-04-18T04:35:19.184Z,22.94
2023-04-18T04:36:19.204Z,22.93
2023-04-18T04:37:19.238Z,22.94
2023-04-18T04:38:19.299Z,22.93
2023-04-18T04:39:19.294Z,22.93
2023-04-18T04:40:19.332Z,22.93
2023-04-18T04:41:19.344Z,22.93
2023-04-18T04:42:19.421Z,22.93
2023-04-18T04:43:19.389Z,22.93
2023-04-18T04:44:19.551Z,22.93
2023-04-18T04:45:19.431Z,22.92
2023-04-18T04:46:19.529Z,22.93
2023-04-18T04:47:19.605Z,22.93
2023-04-18T04:48:19.582Z,22.93
2023-04-18T04:49:19.547Z,22.93
2023-04-18T04:50:19.535Z,22.93
2023-04-18T04:51:19.588Z,22.93
2023-04-18T04:52:19.661Z,22.94
2023-04-18T04:53:19.624Z,22.93
2023-04-18T04:54:19.624Z,22.93
2023-04-18T04:55:19.668Z,22.93
2023-04-18T04:56:19.670Z,22.92
2023-04-18T04:57:19.754Z,22.92
2023-04-18T04:58:19.761Z,22.92
2023-04-18T04:59:19.741Z,22.93
2023-04-18T05:00:19.777Z,22.92
2023-04-18T05:01:19.854Z,22.93
2023-04-18T05:02:19.895Z,22.93
2023-04-18T05:03:19.989Z,22.93
2023-04-18T05:04:20.269Z,22.92
2023-04-18T05:05:19.894Z,22.93
2023-04-18T05:06:19.915Z,22.93
2023-04-18T05:07:20.597Z,22.92
2023-04-18T05:08:19.955Z,22.92
2023-04-18T05:09:20.028Z,22.93
2023-04-18T05:10:19.993Z,22.93
2023-04-18T05:11:20.054Z,22.93
2023-04-18T05:12:20.073Z,22.92
2023-04-18T05:13:20.101Z,22.93
2023-04-18T05:14:20.119Z,22.93
2023-04-18T05:15:20.120Z,22.92
2023-04-18T05:16:20.149Z,22.93
2023-04-18T05:17:20.161Z,22.94
2023-04-18T05:18:20.231Z,22.94
2023-04-18T05:19:20.235Z,22.94
2023-04-18T05:20:20.278Z,22.94
2023-04-18T05:21:20.280Z,22.94
2023-04-18T05:22:20.300Z,22.93
2023-04-18T05:23:20.631Z,22.94
2023-04-18T05:24:20.398Z,22.94
2023-04-18T05:25:20.373Z,22.95
2023-04-18T05:26:20.434Z,22.94
2023-04-18T05:27:20.418Z,22.95
2023-04-18T05:28:20.632Z,22.96
2023-04-18T05:29:20.524Z,22.96
2023-04-18T05:30:20.497Z,22.96
2023-04-18T05:31:20.627Z,22.96
2023-04-18T05:32:20.627Z,22.97
2023-04-18T05:33:20.585Z,22.97
2023-04-18T05:34:20.599Z,22.97
2023-04-18T05:35:20.672Z,22.96
2023-04-18T05:36:20.687Z,22.99
2023-04-18T05:37:20.758Z,23.02
2023-04-18T05:38:20.737Z,23.07
2023-04-18T05:39:20.878Z,23.10
2023-04-18T05:40:21.587Z,23.12
2023-04-18T05:41:20.826Z,23.13
2023-04-18T05:42:20.854Z,23.17
2023-04-18T05:43:21.763Z,23.20
2023-04-18T05:44:21.009Z,23.27
2023-04-18T05:45:21.093Z,23.30
2023-04-18T05:46:20.822Z,23.34
2023-04-18T05:47:20.796Z,23.37
2023-04-18T05:48:20.777Z,23.42
2023-04-18T05:49:20.758Z,23.45
2023-04-18T05:50:21.230Z,23.50
2023-04-18T05:51:20.692Z,23.53
2023-04-18T05:52:20.698Z,23.56
2023-04-18T05:53:21.130Z,23.59
2023-04-18T05:54:20.667Z,23.61
2023-04-18T05:55:20.702Z,23.64
2023-04-18T05:56:20.759Z,23.67
2023-04-18T05:57:20.834Z,23.69
2023-04-18T05:58:20.883Z,23.72
2023-04-18T05:59:20.910Z,23.75
2023-04-18T06:00:21.001Z,23.77
2023-04-18T06:01:21.051Z,23.79
2023-04-18T06:02:21.195Z,23.81
2023-04-18T06:03:21.233Z,23.83
2023-04-18T06:04:21.325Z,23.85
2023-04-18T06:05:21.440Z,23.88
2023-04-18T06:06:21.239Z,23.90
2023-04-18T06:07:21.245Z,23.92
2023-04-18T06:08:21.295Z,23.94
2023-04-18T06:09:21.343Z,23.95
2023-04-18T06:10:21.376Z,23.97
2023-04-18T06:11:21.514Z,23.99
2023-04-18T06:12:21.549Z,24.00
2023-04-18T06:13:21.523Z,24.02
2023-04-18T06:14:21.581Z,24.04
2023-04-18T06:15:21.581Z,24.05
2023-04-18T06:16:21.672Z,24.06
2023-04-18T06:17:21.688Z,24.07
2023-04-18T06:18:21.694Z,24.08
2023-04-18T06:19:21.712Z,24.10
2023-04-18T06:20:21.728Z,24.10
2023-04-18T06:21:21.743Z,24.11
2023-04-18T06:22:21.739Z,24.12
2023-04-18T06:23:21.799Z,24.12
2023-04-18T06:24:21.802Z,24.14
2023-04-18T06:25:21.848Z,24.14
2023-04-18T06:26:21.904Z,24.17
2023-04-18T06:27:31.013Z,24.18
2023-04-18T06:28:22.900Z,24.20
2023-04-18T06:29:21.880Z,24.22
2023-04-18T06:30:21.988Z,24.23
2023-04-18T06:31:21.882Z,24.25
2023-04-18T06:32:21.945Z,24.26
2023-04-18T06:33:21.848Z,24.26
2023-04-18T06:34:21.823Z,24.27
2023-04-18T06:35:22.491Z,24.27
2023-04-18T06:36:21.871Z,24.29
2023-04-18T06:37:21.818Z,24.31
2023-04-18T06:38:22.145Z,24.32
2023-04-18T06:39:21.806Z,24.34
2023-04-18T06:40:22.687Z,24.37
2023-04-18T06:41:21.840Z,24.38
2023-04-18T06:42:22.516Z,24.40
2023-04-18T06:43:21.776Z,24.41
2023-04-18T06:44:21.959Z,24.43
2023-04-18T06:45:22.140Z,24.44
2023-04-18T06:46:21.841Z,24.45
2023-04-18T06:47:21.883Z,24.47
2023-04-18T06:48:21.791Z,24.47
2023-04-18T06:49:26.264Z,24.48
2023-04-18T06:50:22.119Z,24.48
2023-04-18T06:51:21.742Z,24.50
2023-04-18T06:52:21.732Z,24.52
2023-04-18T06:53:21.729Z,24.52
2023-04-18T06:54:21.728Z,24.52
2023-04-18T06:55:21.758Z,24.53
2023-04-18T06:56:21.716Z,24.55
2023-04-18T06:57:21.728Z,24.55
2023-04-18T06:58:21.728Z,24.56
2023-04-18T06:59:22.649Z,24.58
2023-04-18T07:00:22.151Z,24.59
2023-04-18T07:01:21.717Z,24.60
2023-04-18T07:02:21.709Z,24.62
2023-04-18T07:03:22.305Z,24.63
2023-04-18T07:04:21.764Z,24.64
2023-04-18T07:05:22.360Z,24.65
2023-04-18T07:06:21.647Z,24.66
2023-04-18T07:07:21.672Z,24.68
2023-04-18T07:08:21.679Z,24.69
2023-04-18T07:09:21.651Z,24.69
2023-04-18T07:10:21.779Z,24.70
2023-04-18T07:11:21.760Z,24.72
2023-04-18T07:12:21.824Z,24.74
2023-04-18T07:13:21.889Z,24.75
2023-04-18T07:14:21.884Z,24.77
2023-04-18T07:15:21.984Z,24.77
2023-04-18T07:16:22.080Z,24.79
2023-04-18T07:17:22.094Z,24.81
2023-04-18T07:18:34.288Z,24.82
2023-04-18T07:19:23.264Z,24.83
2023-04-18T07:20:22.302Z,24.84
2023-04-18T07:21:22.389Z,24.84
2023-04-18T07:22:22.392Z,24.85
2023-04-18T07:23:22.538Z,24.85
2023-04-18T07:24:22.484Z,24.85
2023-04-18T07:25:22.555Z,24.86
2023-04-18T07:26:22.624Z,24.87
2023-04-18T07:27:22.696Z,24.87
2023-04-18T07:28:22.701Z,24.88
2023-04-18T07:29:22.728Z,24.88
2023-04-18T07:30:22.810Z,24.89
2023-04-18T07:31:22.848Z,24.90
2023-04-18T07:32:23.694Z,24.91
2023-04-18T07:33:22.993Z,24.93
2023-04-18T07:34:23.701Z,24.95
2023-04-18T07:35:23.047Z,24.96
2023-04-18T07:36:23.120Z,24.96
2023-04-18T07:37:23.187Z,24.98
2023-04-18T07:38:23.200Z,24.99
2023-04-18T07:39:23.269Z,25.00
2023-04-18T07:41:06.764Z,25.00
2023-04-18T07:42:06.748Z,25.02
2023-04-18T07:43:06.853Z,25.03
2023-04-18T07:44:06.800Z,25.03
2023-04-18T07:45:06.777Z,25.02
2023-04-18T07:46:06.788Z,25.03
2023-04-18T07:47:06.739Z,25.04
2023-04-18T07:48:06.812Z,25.05
2023-04-18T07:49:06.735Z,25.06
2023-04-18T07:50:06.761Z,25.07
2023-04-18T07:51:06.933Z,25.06
2023-04-18T07:52:07.405Z,25.07
2023-04-18T07:53:06.873Z,25.09
2023-04-18T07:54:06.821Z,25.09
2023-04-18T07:55:06.755Z,25.10
2023-04-18T07:56:07.922Z,25.10
2023-04-18T07:57:06.712Z,25.11
2023-04-18T07:58:06.699Z,25.11
2023-04-18T07:59:07.493Z,25.12
2023-04-18T08:00:06.686Z,25.11
2023-04-18T08:01:06.911Z,25.12
2023-04-18T08:02:06.707Z,25.12
2023-04-18T08:03:06.775Z,25.12
2023-04-18T08:04:06.789Z,25.13
2023-04-18T08:05:06.711Z,25.12
2023-04-18T08:06:06.646Z,25.14
2023-04-18T08:07:06.655Z,25.14
2023-04-18T08:08:06.611Z,25.14
2023-04-18T08:09:06.663Z,25.16
2023-04-18T08:10:06.625Z,25.17
2023-04-18T08:11:06.633Z,25.20
2023-04-18T08:12:06.591Z,25.21
2023-04-18T08:13:06.597Z,25.22
2023-04-18T08:14:06.605Z,25.23
2023-04-18T08:15:06.637Z,25.24
2023-04-18T08:16:06.691Z,25.25
2023-04-18T08:17:06.567Z,25.27
2023-04-18T08:18:06.669Z,25.29
2023-04-18T08:19:06.584Z,25.31
2023-04-18T08:20:06.548Z,25.32
2023-04-18T08:21:06.641Z,25.32
2023-04-18T08:22:06.542Z,25.34
2023-04-18T08:23:09.452Z,25.34
2023-04-18T08:24:06.576Z,25.33
2023-04-18T08:25:06.529Z,25.12
2023-04-18T08:26:06.999Z,24.92
2023-04-18T08:27:06.526Z,24.79
2023-04-18T08:28:06.499Z,24.64
2023-04-18T08:29:06.538Z,24.48
2023-04-18T08:30:06.534Z,24.34
2023-04-18T08:31:06.959Z,24.26
2023-04-18T08:32:06.626Z,24.23
2023-04-18T08:33:06.527Z,24.18
2023-04-18T08:34:07.429Z,24.20
2023-04-18T08:35:06.932Z,24.20
2023-04-18T08:36:06.537Z,24.17
2023-04-18T08:37:06.449Z,24.16
2023-04-18T08:38:06.475Z,24.16
2023-04-18T08:39:06.489Z,24.20
2023-04-18T08:40:06.905Z,24.22
2023-04-18T08:41:07.070Z,24.27
2023-04-18T08:42:06.622Z,24.31
2023-04-18T08:43:06.604Z,24.35
2023-04-18T08:44:06.622Z,24.39
2023-04-18T08:45:06.609Z,24.41
2023-04-18T08:46:06.980Z,24.43
2023-04-18T08:47:06.652Z,24.45
2023-04-18T08:48:06.682Z,24.48
2023-04-18T08:49:06.745Z,24.49
2023-04-18T08:50:06.750Z,24.52
2023-04-18T08:51:06.925Z,24.55
2023-04-18T08:52:06.864Z,24.58
2023-04-18T08:53:06.861Z,24.61
2023-04-18T08:54:06.995Z,24.64
2023-04-18T08:55:07.926Z,24.67
2023-04-18T08:56:07.428Z,24.69
2023-04-18T08:57:07.162Z,24.72
2023-04-18T08:58:07.211Z,24.74
2023-04-18T08:59:07.169Z,24.77
2023-04-18T09:00:07.417Z,24.80
2023-04-18T09:01:07.302Z,24.81
2023-04-18T09:02:07.298Z,24.83
2023-04-18T09:03:07.492Z,24.85
2023-04-18T09:04:07.387Z,24.87
2023-04-18T09:05:07.413Z,24.90
2023-04-18T09:06:07.482Z,24.91
2023-04-18T09:07:07.479Z,24.91
2023-04-18T09:08:07.518Z,24.93
2023-04-18T09:09:07.592Z,24.94
2023-04-18T09:10:07.615Z,24.95
2023-04-18T09:11:07.683Z,24.95
2023-04-18T09:12:07.743Z,24.97
2023-04-18T09:13:07.814Z,24.99
2023-04-18T09:14:07.829Z,24.98
2023-04-18T09:15:07.845Z,25.00
2023-04-18T09:16:07.946Z,24.99
2023-04-18T09:17:07.929Z,25.01
2023-04-18T09:18:07.952Z,25.02
2023-04-18T09:19:09.183Z,25.03
2023-04-18T09:20:08.505Z,25.03
2023-04-18T09:21:08.460Z,25.03
2023-04-18T09:22:08.088Z,25.04
2023-04-18T09:23:08.109Z,25.04
2023-04-18T09:24:08.111Z,25.07
2023-04-18T09:25:08.165Z,25.08
2023-04-18T09:26:08.165Z,25.12
2023-04-18T09:27:08.195Z,25.14
2023-04-18T09:28:08.252Z,25.16
2023-04-18T09:29:08.255Z,25.18
2023-04-18T09:30:08.268Z,25.20
2023-04-18T09:31:08.414Z,25.21
2023-04-18T09:32:08.294Z,25.22
2023-04-18T09:33:08.315Z,25.23
2023-04-18T09:34:08.368Z,25.23
2023-04-18T09:35:08.445Z,25.21
2023-04-18T09:36:08.944Z,25.07
2023-04-18T09:37:08.489Z,24.82
2023-04-18T09:38:08.677Z,24.57
2023-04-18T09:39:08.546Z,24.38
2023-04-18T09:40:08.569Z,24.31
2023-04-18T09:41:08.581Z,24.29
2023-04-18T09:42:08.612Z,24.28
2023-04-18T09:43:08.672Z,24.29
2023-04-18T09:44:09.658Z,24.30
2023-04-18T09:45:08.737Z,24.32
2023-04-18T09:46:08.889Z,24.36
2023-04-18T09:47:08.745Z,24.39
2023-04-18T09:48:08.894Z,24.41
2023-04-18T09:49:10.913Z,24.44
2023-04-18T09:50:08.961Z,24.47
2023-04-18T09:51:08.953Z,24.44
2023-04-18T09:52:08.905Z,24.36
2023-04-18T09:53:08.859Z,24.33
2023-04-18T09:54:08.916Z,24.33
2023-04-18T09:55:08.967Z,24.33
2023-04-18T09:56:08.954Z,24.35
2023-04-18T09:57:08.919Z,24.37
2023-04-18T09:58:08.934Z,24.39
2023-04-18T09:59:09.080Z,24.41
2023-04-18T10:00:09.036Z,24.44
2023-04-18T10:01:09.035Z,24.47
2023-04-18T10:02:09.158Z,24.49
2023-04-18T10:03:09.221Z,24.52
2023-04-18T10:04:09.112Z,24.56
2023-04-18T10:05:10.007Z,24.57
2023-04-18T10:06:09.211Z,24.60
2023-04-18T10:07:09.267Z,24.62
2023-04-18T10:08:09.350Z,24.65
2023-04-18T10:09:09.454Z,24.67
2023-04-18T10:10:09.494Z,24.68
2023-04-18T10:11:09.505Z,24.70
2023-04-18T10:12:09.553Z,24.73
2023-04-18T10:13:09.628Z,24.73
2023-04-18T10:14:09.702Z,24.76
2023-04-18T10:15:09.710Z,24.76
2023-04-18T10:16:09.811Z,24.77
2023-04-18T10:17:09.781Z,24.76
2023-04-18T10:18:09.802Z,24.74
2023-04-18T10:19:09.846Z,24.73
2023-04-18T10:20:09.868Z,24.72
2023-04-18T10:21:10.005Z,24.71
2023-04-18T10:22:09.998Z,24.71
2023-04-18T10:23:10.059Z,24.71
2023-04-18T10:24:10.092Z,24.70
2023-04-18T10:25:10.186Z,24.71
2023-04-18T10:26:10.249Z,24.71
2023-04-18T10:27:10.510Z,24.62
2023-04-18T10:28:10.196Z,24.58
2023-04-18T10:29:10.221Z,24.54
2023-04-18T10:30:10.246Z,24.51
2023-04-18T10:31:10.607Z,24.51
2023-04-18T10:32:10.553Z,24.52
2023-04-18T10:33:18.369Z,24.52
2023-04-18T10:34:11.969Z,24.53
2023-04-18T10:35:10.360Z,24.56
2023-04-18T10:36:10.260Z,24.58
2023-04-18T10:37:10.279Z,24.59
2023-04-18T10:38:10.251Z,24.56
2023-04-18T10:39:10.237Z,24.54
2023-04-18T10:40:10.299Z,24.53
2023-04-18T10:41:10.299Z,24.52
2023-04-18T10:42:10.215Z,24.52
2023-04-18T10:43:10.217Z,24.52
2023-04-18T10:44:10.363Z,24.53
2023-04-18T10:45:10.197Z,24.53
2023-04-18T10:46:23.988Z,24.54
2023-04-18T10:47:11.241Z,24.55
2023-04-18T10:48:10.243Z,24.56
2023-04-18T10:49:10.363Z,24.57
2023-04-18T10:50:10.173Z,24.59
2023-04-18T10:51:10.185Z,24.60
2023-04-18T10:52:12.306Z,24.61
2023-04-18T10:53:10.147Z,24.61
2023-04-18T10:54:10.154Z,24.62
2023-04-18T10:55:10.142Z,24.64
2023-04-18T10:56:10.178Z,24.67
2023-04-18T10:57:10.157Z,24.69
2023-04-18T10:58:10.108Z,24.72
2023-04-18T10:59:10.105Z,24.74
2023-04-18T11:00:10.161Z,24.76
2023-04-18T11:01:10.146Z,24.78
2023-04-18T11:02:10.236Z,24.81
2023-04-18T11:03:10.340Z,24.82
2023-04-18T11:04:10.180Z,24.83
2023-04-18T11:05:10.097Z,24.86
2023-04-18T11:06:10.103Z,24.86
2023-04-18T11:07:10.089Z,24.88
2023-04-18T11:08:10.050Z,24.90
2023-04-18T11:09:10.039Z,24.91
2023-04-18T11:10:10.038Z,24.92
2023-04-18T11:11:10.110Z,24.94
2023-04-18T11:12:10.091Z,24.94
2023-04-18T11:13:10.027Z,24.94
2023-04-18T11:14:10.022Z,24.94
2023-04-18T11:15:12.015Z,24.95
2023-04-18T11:16:10.070Z,24.94
2023-04-18T11:17:10.002Z,24.93
2023-04-18T11:18:10.148Z,24.94
2023-04-18T11:19:09.991Z,24.94
2023-04-18T11:20:10.011Z,24.96
2023-04-18T11:21:09.986Z,24.97
2023-04-18T11:22:10.069Z,24.98
2023-04-18T11:23:09.995Z,24.99
2023-04-18T11:24:09.959Z,24.99
2023-04-18T11:25:10.003Z,24.98
2023-04-18T11:26:10.030Z,24.97
2023-04-18T11:27:10.495Z,24.96
2023-04-18T11:28:10.172Z,24.96
2023-04-18T11:29:10.145Z,24.95
2023-04-18T11:30:10.253Z,24.95
2023-04-18T11:31:10.251Z,24.95
2023-04-18T11:32:10.388Z,24.96
2023-04-18T11:33:10.331Z,24.94
2023-04-18T11:34:10.354Z,24.94
2023-04-18T11:35:10.391Z,24.94
2023-04-18T11:36:10.467Z,24.91
2023-04-18T11:37:10.474Z,24.91
2023-04-18T11:38:10.536Z,24.90
2023-04-18T11:39:10.638Z,24.89
2023-04-18T11:40:10.598Z,24.90
2023-04-18T11:41:10.639Z,24.90
2023-04-18T11:42:10.713Z,24.90
2023-04-18T11:43:10.709Z,24.90
2023-04-18T11:44:10.757Z,24.89
2023-04-18T11:45:10.764Z,24.89
2023-04-18T11:46:11.051Z,24.89
2023-04-18T11:47:10.868Z,24.88
2023-04-18T11:48:10.909Z,24.90
2023-04-18T11:49:10.966Z,24.89
2023-04-18T11:50:11.007Z,24.89
2023-04-18T11:51:11.044Z,24.89
2023-04-18T11:52:11.076Z,24.90
2023-04-18T11:53:11.265Z,24.90
2023-04-18T11:54:11.225Z,24.90
2023-04-18T11:55:11.155Z,24.90
2023-04-18T11:56:11.292Z,24.91
2023-04-18T11:57:11.260Z,24.92
2023-04-18T11:58:11.331Z,24.91
2023-04-18T11:59:11.346Z,24.91
2023-04-18T12:00:11.401Z,24.92
2023-04-18T12:01:11.463Z,24.91
2023-04-18T12:03:13.917Z,24.91
2023-04-18T12:04:11.851Z,24.92
2023-04-18T12:05:12.139Z,24.92
2023-04-18T12:06:11.729Z,24.92
2023-04-18T12:07:11.739Z,24.91
2023-04-18T12:08:11.793Z,24.90
2023-04-18T12:09:11.788Z,24.91
2023-04-18T12:10:11.832Z,24.91
2023-04-18T12:11:11.906Z,24.90
2023-04-18T12:12:11.975Z,24.90
2023-04-18T12:13:11.962Z,24.88
2023-04-18T12:14:12.028Z,24.88
2023-04-18T12:15:12.023Z,24.88
2023-04-18T12:16:12.111Z,24.88
2023-04-18T12:17:12.120Z,24.88
2023-04-18T12:18:12.251Z,24.87
2023-04-18T12:19:12.211Z,24.87
2023-04-18T12:20:12.240Z,24.87
2023-04-18T12:21:12.302Z,24.86
2023-04-18T12:22:13.036Z,24.86
2023-04-18T12:23:12.370Z,24.85
2023-04-18T12:24:12.484Z,24.85
2023-04-18T12:25:12.510Z,24.85
2023-04-18T12:26:12.552Z,24.85
2023-04-18T12:27:13.089Z,24.85
2023-04-18T12:28:12.586Z,24.84
2023-04-18T12:29:12.749Z,24.84
2023-04-18T12:30:12.659Z,24.83
2023-04-18T12:31:12.759Z,24.83
2023-04-18T12:32:13.546Z,24.83
2023-04-18T12:33:12.803Z,24.83
2023-04-18T12:34:12.947Z,24.83
2023-04-18T12:35:12.868Z,24.82
2023-04-18T12:36:12.980Z,24.84
2023-04-18T12:37:13.062Z,24.84
2023-04-18T12:38:13.027Z,24.83
2023-04-18T12:39:13.044Z,24.83
2023-04-18T12:40:13.082Z,24.81
2023-04-18T12:41:13.237Z,24.81
2023-04-18T12:42:13.534Z,24.79
2023-04-18T12:43:13.255Z,24.79
2023-04-18T12:44:13.413Z,24.77
2023-04-18T12:45:13.272Z,24.77
2023-04-18T12:46:13.424Z,24.76
2023-04-18T12:47:13.582Z,24.75
2023-04-18T12:48:13.729Z,24.75
2023-04-18T12:49:13.474Z,24.74
2023-04-18T12:50:13.526Z,24.74
2023-04-18T12:51:13.556Z,24.73
2023-04-18T12:52:13.607Z,24.72
2023-04-18T12:53:13.657Z,24.71
2023-04-18T12:54:13.870Z,24.71